»·PEaware :: N221XG KCRQ-KSNA

N221XG :: KCRQ-KSNA

FLIGHT INFORMATION

Flight Status: Arrived
Operator: Privately registered:
United States
More flights under this callsign
Pilot: Ryan L. (9775)
Aircraft: CESSNA 208 CARAVAN
(C208)
More flights by this aircraft type
Origin: KCRQ McClellan-Palomar
United States
Destination: KSNA John Wayne-Orange Co
United States
More flights between these airports :: More routes between these airports
Route: SANP3
File this flight plan on PilotEdge
Remarks:
Altitude:
(Current/Filed)
6,000ft
Speed:
(Current/Filed)
160kts
Departed: 28-Nov-19 08:24 AM
Arrived: 28-Nov-19 09:08 AM
Distance/Time
Traveled:
44nm/0:43
Distance/Time
To Go:
Arrived

Flight Plot

Page will automatically refresh every two minutes.

Flight plan parsing failed; only flown route is shown


Map Options




Map Legend


Flown Route
Filed Route
Departure Airport
Arrival Airport
Navaid (VOR, NDB)
Fix

Horizontal Profiles

Position Reports

Time Latitude Longitude Heading Altitude Ground
Speed
28-Nov-19 08:08 33.127182 -117.279808 78 336ft 0kts
28-Nov-19 08:09 33.127182 -117.279808 78 336ft 0kts
28-Nov-19 08:10 33.127182 -117.279808 78 336ft 0kts
28-Nov-19 08:11 33.127182 -117.279808 78 336ft 0kts
28-Nov-19 08:12 33.127182 -117.279808 78 336ft 0kts
28-Nov-19 08:13 33.127182 -117.279808 78 336ft 0kts
28-Nov-19 08:14 33.127182 -117.279808 78 336ft 0kts
28-Nov-19 08:15 33.127182 -117.279808 78 336ft 0kts
28-Nov-19 08:16 33.127182 -117.279808 78 336ft 0kts
28-Nov-19 08:17 33.127182 -117.279808 78 336ft 0kts
28-Nov-19 08:18 33.127182 -117.279808 78 336ft 0kts
28-Nov-19 08:19 33.127182 -117.279808 78 336ft 0kts
28-Nov-19 08:20 33.127261 -117.281126 258 336ft 11kts
28-Nov-19 08:21 33.126317 -117.286976 264 336ft 19kts
28-Nov-19 08:22 33.127118 -117.287394 81 336ft 0kts
28-Nov-19 08:23 33.128582 -117.279357 74 384ft 88kts
28-Nov-19 08:24 33.132769 -117.250331 92 1134ft 100kts
28-Nov-19 08:25 33.151511 -117.255825 301 1869ft 121kts
28-Nov-19 08:26 33.171498 -117.291996 296 2458ft 134kts
28-Nov-19 08:27 33.190302 -117.327315 293 3384ft 117kts
28-Nov-19 08:28 33.207291 -117.358298 290 4346ft 106kts
28-Nov-19 08:29 33.223483 -117.388028 290 5151ft 114kts
28-Nov-19 08:30 33.244248 -117.419276 310 5829ft 132kts
28-Nov-19 08:31 33.274221 -117.447949 311 6232ft 156kts
28-Nov-19 08:32 33.304837 -117.489971 305 5997ft 172kts
28-Nov-19 08:33 33.338003 -117.530077 307 5997ft 167kts
28-Nov-19 08:34 33.371131 -117.569108 307 5998ft 167kts
28-Nov-19 08:35 33.404651 -117.608277 307 5998ft 168kts
28-Nov-19 08:36 33.438245 -117.647819 305 5999ft 168kts
28-Nov-19 08:38 33.470544 -117.688094 305 5997ft 168kts
28-Nov-19 08:39 33.502802 -117.729228 302 5996ft 168kts
28-Nov-19 08:40 33.536735 -117.769434 307 5994ft 171kts
28-Nov-19 08:41 33.571211 -117.809344 308 5992ft 172kts
28-Nov-19 08:42 33.605309 -117.848798 307 6009ft 172kts
28-Nov-19 08:43 33.640074 -117.889083 308 6009ft 173kts
28-Nov-19 08:44 33.674858 -117.929433 308 6009ft 174kts
28-Nov-19 08:45 33.709752 -117.969952 308 6009ft 174kts
28-Nov-19 08:46 33.744652 -118.010517 308 6010ft 174kts
28-Nov-19 08:47 33.784248 -118.040065 21 6001ft 178kts
28-Nov-19 08:48 33.808668 -117.996526 78 5848ft 167kts
28-Nov-19 08:49 33.827767 -117.941324 73 4874ft 182kts
28-Nov-19 08:50 33.848328 -117.886305 71 4023ft 171kts
28-Nov-19 08:51 33.866988 -117.837588 72 4009ft 154kts
28-Nov-19 08:52 33.884684 -117.791136 72 4010ft 152kts
28-Nov-19 08:53 33.902411 -117.744568 72 4010ft 152kts
28-Nov-19 08:54 33.926362 -117.702675 37 4014ft 164kts
28-Nov-19 08:55 33.967500 -117.676944 32 3925ft 170kts
28-Nov-19 08:55 33.998020 -117.689449 265 3566ft 165kts
28-Nov-19 08:57 33.961999 -117.698067 159 3510ft 131kts
28-Nov-19 08:57 33.932630 -117.705363 199 3509ft 139kts
28-Nov-19 08:58 33.898235 -117.727018 200 3509ft 139kts
28-Nov-19 09:00 33.858241 -117.752531 200 3509ft 139kts
28-Nov-19 09:00 33.830886 -117.770094 199 3330ft 127kts
28-Nov-19 09:01 33.799241 -117.790180 200 2690ft 130kts
28-Nov-19 09:02 33.768630 -117.809719 201 2012ft 117kts
28-Nov-19 09:03 33.741398 -117.826869 207 1423ft 102kts
28-Nov-19 09:04 33.718515 -117.841492 207 912ft 86kts
28-Nov-19 09:05 33.697251 -117.854776 206 468ft 83kts
28-Nov-19 09:06 33.677728 -117.867545 208 61ft 59kts
28-Nov-19 09:07 33.675257 -117.870629 28 61ft 10kts
28-Nov-19 09:08 33.676295 -117.870584 25 61ft 0kts
28-Nov-19 09:09 33.676295 -117.870584 25 61ft 0kts
28-Nov-19 09:10 33.676295 -117.870584 25 61ft 0kts
28-Nov-19 09:11 33.676295 -117.870584 25 61ft 0kts
28-Nov-19 09:12 33.676295 -117.870584 25 61ft 0kts
28-Nov-19 09:13 33.676295 -117.870584 25 61ft 0kts
28-Nov-19 09:14 33.676295 -117.870584 25 61ft 0kts
28-Nov-19 09:15 33.676295 -117.870584 25 61ft 0kts
28-Nov-19 09:16 33.676295 -117.870584 25 61ft 0kts

Navigation Log

Ident Type
Flight plan parsing failed, navigation log unavailable